createdAt,value
2023-05-11T00:02:23.316Z,5.53
2023-05-11T00:04:51.643Z,5.90
2023-05-11T00:07:20.344Z,5.85
2023-05-11T00:09:48.904Z,8.27
2023-05-11T00:12:17.479Z,6.07
2023-05-11T00:14:45.815Z,7.00
2023-05-11T00:17:14.656Z,8.57
2023-05-11T00:19:42.947Z,8.48
2023-05-11T00:22:12.003Z,5.70
2023-05-11T00:24:40.323Z,7.40
2023-05-11T00:27:08.968Z,6.43
2023-05-11T00:29:37.386Z,7.47
2023-05-11T00:32:06.550Z,7.10
2023-05-11T00:34:35.225Z,8.02
2023-05-11T00:37:10.139Z,8.10
2023-05-11T00:39:40.732Z,6.63
2023-05-11T00:42:10.952Z,6.35
2023-05-11T00:44:39.595Z,7.47
2023-05-11T00:47:08.750Z,11.23
2023-05-11T00:49:37.077Z,7.43
2023-05-11T00:52:06.634Z,10.30
2023-05-11T00:54:36.457Z,7.50
2023-05-11T00:57:05.192Z,6.72
2023-05-11T00:59:33.699Z,7.60
2023-05-11T01:02:04.184Z,8.30
2023-05-11T01:04:33.385Z,6.93
2023-05-11T01:07:28.486Z,8.30
2023-05-11T01:10:32.868Z,8.93
2023-05-11T01:13:13.863Z,8.95
2023-05-11T01:15:56.554Z,6.37
2023-05-11T01:18:35.557Z,9.52
2023-05-11T01:21:11.560Z,8.65
2023-05-11T01:24:13.287Z,7.40
2023-05-11T01:26:56.963Z,8.80
2023-05-11T01:29:38.575Z,6.43
2023-05-11T01:32:15.907Z,7.30
2023-05-11T01:34:46.513Z,10.50
2023-05-11T01:37:21.754Z,7.80
2023-05-11T01:39:57.982Z,8.38
2023-05-11T01:42:35.577Z,8.10
2023-05-11T01:45:08.033Z,10.57
2023-05-11T01:47:38.978Z,8.68
2023-05-11T01:50:08.950Z,5.25
2023-05-11T01:52:41.531Z,7.55
2023-05-11T01:55:11.114Z,6.85
2023-05-11T01:57:40.057Z,8.40
2023-05-11T02:00:09.938Z,8.35
2023-05-11T02:02:48.307Z,9.95
2023-05-11T02:05:22.359Z,6.85
2023-05-11T02:07:54.546Z,10.48
2023-05-11T02:10:26.844Z,7.57
2023-05-11T02:15:26.946Z,11.23
2023-05-11T02:17:56.120Z,11.27
2023-05-11T02:20:25.534Z,8.32
2023-05-11T02:22:55.572Z,7.22
2023-05-11T02:25:25.650Z,7.22
2023-05-11T02:27:53.907Z,8.63
2023-05-11T02:30:27.306Z,9.13
2023-05-11T02:32:59.291Z,8.43
2023-05-11T02:35:34.578Z,8.60
2023-05-11T02:38:04.496Z,8.10
2023-05-11T02:40:42.636Z,9.38
2023-05-11T02:43:13.398Z,11.55
2023-05-11T02:45:53.570Z,9.35
2023-05-11T02:48:26.957Z,8.18
2023-05-11T02:50:57.356Z,9.80
2023-05-11T02:53:28.930Z,9.43
2023-05-11T02:55:58.800Z,12.77
2023-05-11T02:58:27.637Z,8.88
2023-05-11T03:01:08.159Z,11.85
2023-05-11T03:03:36.829Z,10.77
2023-05-11T03:06:05.714Z,9.65
2023-05-11T03:08:34.444Z,10.13
2023-05-11T03:11:04.893Z,10.68
2023-05-11T03:13:34.480Z,11.65
2023-05-11T03:18:37.060Z,15.07
2023-05-11T03:21:06.472Z,11.25
2023-05-11T03:23:37.140Z,12.20
2023-05-11T03:26:07.013Z,10.63
2023-05-11T03:28:38.702Z,10.25
2023-05-11T03:31:35.144Z,11.60
2023-05-11T03:34:03.798Z,10.73
2023-05-11T03:36:40.050Z,15.30
2023-05-11T03:39:11.709Z,10.55
2023-05-11T03:41:42.589Z,7.78
2023-05-11T03:44:14.210Z,7.93
2023-05-11T03:46:46.148Z,8.93
2023-05-11T03:49:16.525Z,8.85
2023-05-11T03:51:46.333Z,11.02
2023-05-11T03:54:15.384Z,10.23
2023-05-11T03:56:46.741Z,9.38
2023-05-11T03:59:16.543Z,10.10
2023-05-11T04:01:45.843Z,9.52
2023-05-11T04:04:14.430Z,7.90
2023-05-11T04:06:43.006Z,8.95
2023-05-11T04:09:20.488Z,10.18
2023-05-11T04:11:49.081Z,9.98
2023-05-11T04:14:17.875Z,9.48
2023-05-11T04:16:46.957Z,10.93
2023-05-11T04:19:16.545Z,9.65
2023-05-11T04:21:46.444Z,10.07
2023-05-11T04:24:14.770Z,10.13
2023-05-11T04:26:43.500Z,9.55
2023-05-11T04:29:11.746Z,12.02
2023-05-11T04:31:40.432Z,15.07
2023-05-11T04:34:09.096Z,13.85
2023-05-11T04:36:39.151Z,13.70
2023-05-11T04:39:08.011Z,11.43
2023-05-11T04:41:39.355Z,10.50
2023-05-11T04:44:09.328Z,13.85
2023-05-11T04:46:38.806Z,12.50
2023-05-11T04:49:08.381Z,9.40
2023-05-11T04:51:39.504Z,10.95
2023-05-11T04:54:08.123Z,9.32
2023-05-11T04:56:40.689Z,14.68
2023-05-11T04:59:10.114Z,10.93
2023-05-11T05:01:39.322Z,9.10
2023-05-11T05:04:08.308Z,9.48
2023-05-11T05:06:38.419Z,8.98
2023-05-11T05:09:07.100Z,7.38
2023-05-11T05:11:36.643Z,9.00
2023-05-11T05:14:04.940Z,9.85
2023-05-11T05:16:33.823Z,9.63
2023-05-11T05:19:02.551Z,13.93
2023-05-11T05:21:32.781Z,9.00
2023-05-11T05:24:01.061Z,8.32
2023-05-11T05:26:30.770Z,7.72
2023-05-11T05:28:59.369Z,9.32
2023-05-11T05:31:28.221Z,7.82
2023-05-11T05:33:56.756Z,8.93
2023-05-11T05:36:26.253Z,6.63
2023-05-11T05:38:54.559Z,11.95
2023-05-11T05:41:23.444Z,8.85
2023-05-11T05:43:54.019Z,14.32
2023-05-11T05:46:22.729Z,11.52
2023-05-11T05:48:51.489Z,18.30
2023-05-11T05:51:21.251Z,9.18
2023-05-11T05:53:49.617Z,9.57
2023-05-11T05:56:18.118Z,6.47
2023-05-11T05:58:46.358Z,8.68
2023-05-11T06:01:15.625Z,17.50
2023-05-11T06:03:45.585Z,7.72
2023-05-11T06:06:14.305Z,9.07
2023-05-11T06:08:43.602Z,9.88
2023-05-11T06:11:12.170Z,9.10
2023-05-11T06:13:41.050Z,13.48
2023-05-11T06:16:09.815Z,8.73
2023-05-11T06:18:39.110Z,5.78
2023-05-11T06:21:11.332Z,8.43
2023-05-11T06:23:39.588Z,9.35
2023-05-11T06:26:09.165Z,10.57
2023-05-11T06:28:37.621Z,3.90
2023-05-11T06:31:10.622Z,9.93
2023-05-11T06:33:42.660Z,9.38
2023-05-11T06:36:20.500Z,5.97
2023-05-11T06:38:48.831Z,6.28
2023-05-11T06:41:17.532Z,8.50
2023-05-11T06:43:45.782Z,5.25
2023-05-11T06:46:24.082Z,10.77
2023-05-11T06:48:52.607Z,7.40
2023-05-11T06:51:24.227Z,5.88
2023-05-11T06:53:52.527Z,8.10
2023-05-11T06:56:21.949Z,24.55
2023-05-11T06:58:50.371Z,6.57
2023-05-11T07:01:18.938Z,6.75
2023-05-11T07:03:49.753Z,5.00
2023-05-11T07:06:19.732Z,4.25
2023-05-11T07:08:48.350Z,4.93
2023-05-11T07:11:17.209Z,9.43
2023-05-11T07:13:45.536Z,6.05
2023-05-11T07:16:14.583Z,8.75
2023-05-11T07:18:43.107Z,9.73
2023-05-11T07:21:11.852Z,6.07
2023-05-11T07:23:40.061Z,13.80
2023-05-11T07:26:09.457Z,6.93
2023-05-11T07:28:37.992Z,8.65
2023-05-11T07:31:07.145Z,18.40
2023-05-11T07:33:38.007Z,7.63
2023-05-11T07:36:07.518Z,5.20
2023-05-11T07:38:36.580Z,8.25
2023-05-11T07:41:06.878Z,5.10
2023-05-11T07:43:35.689Z,6.88
2023-05-11T07:46:04.311Z,5.55
2023-05-11T07:48:32.534Z,8.75
2023-05-11T07:51:01.733Z,5.85
2023-05-11T07:53:30.009Z,5.15
2023-05-11T07:55:59.754Z,6.80
2023-05-11T07:58:27.960Z,8.55
2023-05-11T08:00:57.369Z,8.18
2023-05-11T08:03:25.842Z,89.05
2023-05-11T08:05:54.747Z,9.38
2023-05-11T08:08:23.009Z,5.43
2023-05-11T08:10:52.658Z,10.07
2023-05-11T08:13:21.589Z,10.43
2023-05-11T08:15:50.162Z,8.35
2023-05-11T08:18:18.450Z,7.32
2023-05-11T08:20:47.188Z,13.90
2023-05-11T08:23:18.308Z,17.10
2023-05-11T08:25:54.878Z,9.73
2023-05-11T08:28:23.238Z,11.65
2023-05-11T08:30:56.707Z,9.25
2023-05-11T08:33:37.341Z,7.95
2023-05-11T08:38:36.527Z,9.95
2023-05-11T08:41:07.827Z,8.75
2023-05-11T08:43:36.593Z,6.20
2023-05-11T08:46:09.287Z,11.35
2023-05-11T08:48:38.083Z,11.02
2023-05-11T08:51:08.071Z,30.17
2023-05-11T08:53:36.690Z,8.18
2023-05-11T08:56:08.666Z,8.48
2023-05-11T08:58:38.607Z,9.25
2023-05-11T09:01:08.856Z,12.48
2023-05-11T09:03:37.483Z,7.90
2023-05-11T09:06:07.916Z,5.03
2023-05-11T09:08:38.558Z,4.22
2023-05-11T09:11:07.518Z,5.07
2023-05-11T09:13:36.292Z,8.38
2023-05-11T09:16:13.783Z,4.18
2023-05-11T09:18:49.829Z,5.85
2023-05-11T09:21:19.414Z,12.15
2023-05-11T09:23:50.037Z,7.00
2023-05-11T09:26:30.051Z,12.77
2023-05-11T09:31:45.233Z,6.80
2023-05-11T09:34:18.541Z,7.45
2023-05-11T09:36:48.975Z,8.43
2023-05-11T09:39:35.110Z,9.05
2023-05-11T09:42:31.572Z,4.57
2023-05-11T09:45:00.146Z,6.75
2023-05-11T09:47:41.006Z,3.28
2023-05-11T09:50:18.884Z,4.10
2023-05-11T09:52:54.710Z,7.82
2023-05-11T09:55:23.095Z,11.20
2023-05-11T09:57:57.369Z,6.20
2023-05-11T10:00:26.191Z,16.48
2023-05-11T10:03:06.188Z,8.05
2023-05-11T10:05:37.807Z,5.65
2023-05-11T10:10:42.599Z,31.80
2023-05-11T10:13:11.556Z,6.90
2023-05-11T10:15:40.043Z,8.40
2023-05-11T10:18:09.345Z,6.68
2023-05-11T10:20:39.276Z,4.13
2023-05-11T10:23:24.409Z,4.97
2023-05-11T10:25:58.042Z,4.50
2023-05-11T10:28:28.940Z,4.90
2023-05-11T10:30:59.836Z,5.18
2023-05-11T10:41:58.526Z,12.05
2023-05-11T10:45:04.642Z,4.90
2023-05-11T10:47:41.310Z,8.00
2023-05-11T10:50:28.169Z,8.07
2023-05-11T10:53:30.858Z,9.15
2023-05-11T10:56:26.424Z,5.20
2023-05-11T10:59:32.460Z,9.85
2023-05-11T11:02:04.191Z,5.60
2023-05-11T11:04:52.165Z,5.80
2023-05-11T11:07:21.731Z,8.82
2023-05-11T11:10:00.662Z,12.35
2023-05-11T11:12:30.241Z,3.83
2023-05-11T11:15:01.295Z,7.70
2023-05-11T11:17:32.102Z,4.30
2023-05-11T11:20:08.442Z,8.98
2023-05-11T11:22:41.719Z,4.75
2023-05-11T11:25:12.880Z,3.72
2023-05-11T11:27:41.634Z,11.88
2023-05-11T11:30:21.468Z,8.98
2023-05-11T11:33:10.448Z,5.35
2023-05-11T11:35:42.602Z,10.70
2023-05-11T11:38:17.016Z,7.35
2023-05-11T11:40:51.411Z,3.97
2023-05-11T11:43:25.964Z,5.10
2023-05-11T11:45:59.752Z,3.58
2023-05-11T11:48:36.962Z,7.75
2023-05-11T11:51:06.625Z,19.02
2023-05-11T11:53:38.681Z,6.15
2023-05-11T11:56:08.202Z,7.53
2023-05-11T11:58:46.259Z,5.03
2023-05-11T12:01:15.558Z,8.77
2023-05-11T12:03:49.391Z,4.07
2023-05-11T12:06:21.774Z,11.30
2023-05-11T12:08:51.277Z,5.60
2023-05-11T12:11:19.781Z,6.35
2023-05-11T12:13:49.178Z,9.85
2023-05-11T12:16:21.163Z,4.88
2023-05-11T12:19:00.760Z,10.27
2023-05-11T12:21:37.429Z,9.93
2023-05-11T12:24:06.407Z,10.05
2023-05-11T12:26:35.869Z,10.55
2023-05-11T12:29:10.324Z,17.10
2023-05-11T12:31:44.572Z,7.40
2023-05-11T12:34:20.334Z,5.78
2023-05-11T12:36:53.826Z,5.55
2023-05-11T12:39:53.833Z,7.85
2023-05-11T12:42:22.405Z,11.75
2023-05-11T12:45:04.275Z,6.07
2023-05-11T12:47:35.482Z,13.02
2023-05-11T12:50:04.593Z,9.30
2023-05-11T12:52:33.007Z,3.78
2023-05-11T12:55:01.645Z,10.38
2023-05-11T12:57:31.812Z,7.70
2023-05-11T13:00:13.944Z,9.00
2023-05-11T13:02:56.786Z,4.85
2023-05-11T13:06:13.517Z,6.85
2023-05-11T13:08:47.000Z,5.95
2023-05-11T13:11:26.970Z,4.45
2023-05-11T13:14:04.547Z,8.77
2023-05-11T13:16:34.180Z,3.65
2023-05-11T13:19:05.184Z,8.18
2023-05-11T13:21:34.315Z,7.05
2023-05-11T13:24:04.176Z,11.65
2023-05-11T13:26:33.343Z,4.75
2023-05-11T13:29:10.722Z,5.10
2023-05-11T13:32:09.335Z,7.93
2023-05-11T13:34:45.079Z,14.82
2023-05-11T13:37:14.793Z,7.10
2023-05-11T13:39:43.139Z,7.90
2023-05-11T13:42:13.990Z,4.78
2023-05-11T13:44:42.305Z,13.38
2023-05-11T13:47:11.740Z,6.60
2023-05-11T13:49:43.390Z,3.65
2023-05-11T13:52:12.238Z,5.18
2023-05-11T13:54:40.562Z,9.18
2023-05-11T13:57:09.471Z,9.00
2023-05-11T13:59:37.789Z,3.20
2023-05-11T14:02:06.559Z,13.05
2023-05-11T14:04:34.958Z,19.05
2023-05-11T14:07:05.673Z,11.93
2023-05-11T14:09:34.092Z,35.03
2023-05-11T14:12:27.793Z,16.10
2023-05-11T14:14:57.795Z,4.57
2023-05-11T14:26:44.601Z,3.15
2023-05-11T14:29:28.118Z,5.07
2023-05-11T14:35:36.004Z,7.03
2023-05-11T14:38:19.826Z,4.15
2023-05-11T14:41:07.202Z,8.38
2023-05-11T14:44:00.215Z,5.95
2023-05-11T14:46:53.009Z,8.07
2023-05-11T14:49:41.106Z,7.15
2023-05-11T14:53:39.828Z,12.60
2023-05-11T15:00:53.942Z,17.05
2023-05-11T15:03:33.478Z,4.72
2023-05-11T15:06:51.109Z,5.93
2023-05-11T15:09:30.395Z,7.43
2023-05-11T15:12:05.851Z,5.97
2023-05-11T15:14:58.119Z,7.90
2023-05-11T15:18:02.905Z,5.50
2023-05-11T15:24:24.443Z,11.15
2023-05-11T15:27:19.145Z,6.82
2023-05-11T15:30:14.509Z,13.00
2023-05-11T15:32:43.484Z,9.38
2023-05-11T15:35:12.273Z,6.47
2023-05-11T15:37:43.934Z,5.72
2023-05-11T15:40:25.556Z,14.45
2023-05-11T15:42:57.842Z,7.13
2023-05-11T15:45:32.777Z,6.30
2023-05-11T15:48:05.229Z,10.95
2023-05-11T15:50:47.936Z,5.40
2023-05-11T15:53:18.472Z,7.47
2023-05-11T15:58:23.038Z,11.30
2023-05-11T16:00:51.954Z,9.10
2023-05-11T16:03:20.449Z,8.52
2023-05-11T16:05:49.239Z,5.78
2023-05-11T16:08:18.156Z,13.38
2023-05-11T16:10:47.411Z,6.05
2023-05-11T16:13:15.721Z,9.93
2023-05-11T16:15:44.278Z,5.10
2023-05-11T16:18:14.092Z,11.18
2023-05-11T16:20:42.916Z,6.43
2023-05-11T16:23:12.694Z,12.23
2023-05-11T16:25:41.350Z,7.40
2023-05-11T16:28:17.108Z,8.07
2023-05-11T16:30:46.042Z,10.23
2023-05-11T16:33:14.543Z,8.10
2023-05-11T16:35:43.249Z,4.22
2023-05-11T16:38:24.489Z,5.03
2023-05-11T16:41:03.832Z,4.03
2023-05-11T16:43:33.121Z,11.50
2023-05-11T16:46:05.196Z,8.20
2023-05-11T16:48:33.516Z,8.82
2023-05-11T16:51:20.751Z,4.80
2023-05-11T16:53:49.166Z,5.18
2023-05-11T16:56:18.127Z,5.22
2023-05-11T16:58:46.552Z,10.13
2023-05-11T17:01:15.831Z,9.23
2023-05-11T17:03:44.351Z,13.85
2023-05-11T17:06:14.793Z,6.13
2023-05-11T17:08:43.120Z,10.38
2023-05-11T17:11:12.698Z,6.78
2023-05-11T17:13:41.219Z,15.13
2023-05-11T17:16:09.820Z,22.45
2023-05-11T17:18:38.358Z,10.18
2023-05-11T17:21:07.071Z,6.93
2023-05-11T17:23:36.228Z,6.65
2023-05-11T17:26:12.092Z,19.67
2023-05-11T17:28:40.703Z,20.63
2023-05-11T17:31:12.113Z,10.10
2023-05-11T17:33:42.004Z,8.85
2023-05-11T17:36:12.019Z,30.38
2023-05-11T17:38:40.254Z,6.45
2023-05-11T17:41:09.378Z,16.88
2023-05-11T17:43:38.304Z,7.10
2023-05-11T17:46:06.927Z,10.75
2023-05-11T17:48:35.268Z,5.53
2023-05-11T17:51:03.868Z,6.13
2023-05-11T17:53:32.683Z,5.03
2023-05-11T17:56:01.216Z,14.80
2023-05-11T17:58:29.703Z,10.25
2023-05-11T18:00:58.373Z,12.38
2023-05-11T18:03:26.912Z,8.50
2023-05-11T18:05:55.876Z,13.27
2023-05-11T18:08:24.136Z,12.98
2023-05-11T18:10:52.653Z,12.32
2023-05-11T18:13:20.934Z,9.35
2023-05-11T18:15:49.672Z,4.53
2023-05-11T18:18:17.989Z,9.15
2023-05-11T18:20:46.648Z,7.93
2023-05-11T18:23:15.094Z,13.82
2023-05-11T18:25:43.776Z,31.70
2023-05-11T18:28:11.987Z,20.58
2023-05-11T18:30:40.660Z,24.13
2023-05-11T18:33:08.952Z,10.50
2023-05-11T18:35:39.169Z,14.65
2023-05-11T18:38:08.036Z,21.05
2023-05-11T18:40:36.878Z,28.40
2023-05-11T18:43:05.428Z,64.18
2023-05-11T18:45:35.105Z,56.08
2023-05-11T18:48:03.959Z,54.35
2023-05-11T18:50:33.025Z,33.63
2023-05-11T18:53:02.283Z,19.70
2023-05-11T18:55:35.434Z,24.27
2023-05-11T18:58:09.418Z,18.30
2023-05-11T19:00:39.517Z,15.48
2023-05-11T19:03:11.560Z,21.92
2023-05-11T19:05:50.930Z,27.95
2023-05-11T19:08:19.424Z,15.27
2023-05-11T19:10:49.537Z,25.13
2023-05-11T19:13:19.418Z,22.60
2023-05-11T19:15:47.956Z,20.55
2023-05-11T19:18:17.371Z,18.05
2023-05-11T19:20:46.394Z,22.08
2023-05-11T19:23:14.917Z,18.40
2023-05-11T19:25:43.848Z,22.38
2023-05-11T19:28:12.126Z,24.08
2023-05-11T19:30:40.811Z,27.05
2023-05-11T19:33:09.407Z,22.15
2023-05-11T19:35:38.313Z,21.70
2023-05-11T19:38:06.639Z,24.33
2023-05-11T19:43:07.757Z,23.27
2023-05-11T19:45:37.450Z,16.63
2023-05-11T19:48:06.148Z,21.80
2023-05-11T19:50:35.244Z,22.77
2023-05-11T19:53:03.935Z,21.90
2023-05-11T19:55:33.565Z,17.77
2023-05-11T19:58:02.180Z,25.33
2023-05-11T20:00:31.142Z,26.73
2023-05-11T20:02:59.902Z,33.72
2023-05-11T20:05:28.582Z,36.65
2023-05-11T20:07:58.052Z,47.22
2023-05-11T20:10:27.112Z,72.95
2023-05-11T20:12:56.502Z,107.28
2023-05-11T20:15:26.393Z,154.75
2023-05-11T20:17:54.631Z,146.07
2023-05-11T20:20:23.514Z,113.00
2023-05-11T20:22:52.482Z,75.93
2023-05-11T20:25:21.718Z,68.32
2023-05-11T20:27:51.183Z,67.35
2023-05-11T20:30:20.708Z,141.77
2023-05-11T20:35:22.328Z,71.07
2023-05-11T20:37:50.668Z,63.53
2023-05-11T20:40:19.631Z,61.10
2023-05-11T20:42:47.992Z,58.15
2023-05-11T20:45:16.958Z,42.58
2023-05-11T20:47:45.214Z,33.42
2023-05-11T20:50:15.326Z,111.43
2023-05-11T20:52:43.572Z,38.42
2023-05-11T20:55:12.169Z,40.45
2023-05-11T20:57:40.367Z,34.38
2023-05-11T21:00:11.102Z,41.40
2023-05-11T21:02:39.438Z,36.63
2023-05-11T21:05:08.972Z,30.52
2023-05-11T21:07:37.727Z,27.20
2023-05-11T21:10:07.226Z,33.97
2023-05-11T21:12:35.616Z,30.02
2023-05-11T21:15:04.508Z,35.38
2023-05-11T21:17:38.446Z,37.63
2023-05-11T21:20:09.450Z,29.23
2023-05-11T21:22:38.478Z,30.20
2023-05-11T21:25:07.936Z,23.98
2023-05-11T21:27:37.352Z,21.08
2023-05-11T21:30:07.343Z,24.85
2023-05-11T21:32:35.630Z,28.13
2023-05-11T21:35:06.195Z,26.70
2023-05-11T21:37:36.116Z,29.55
2023-05-11T21:40:05.417Z,36.63
2023-05-11T21:42:36.327Z,32.72
2023-05-11T21:45:05.533Z,29.52
2023-05-11T21:47:43.070Z,26.75
2023-05-11T21:50:12.196Z,23.30
2023-05-11T21:52:40.729Z,18.42
2023-05-11T21:55:10.088Z,21.42
2023-05-11T21:57:38.321Z,17.75
2023-05-11T22:00:09.673Z,24.20
2023-05-11T22:02:38.373Z,17.60
2023-05-11T22:05:07.328Z,16.40
2023-05-11T22:07:35.951Z,19.02
2023-05-11T22:10:05.106Z,23.45
2023-05-11T22:12:33.372Z,17.33
2023-05-11T22:15:03.857Z,15.80
2023-05-11T22:17:32.133Z,17.17
2023-05-11T22:20:01.251Z,13.75
2023-05-11T22:22:29.662Z,19.30
2023-05-11T22:24:59.712Z,16.00
2023-05-11T22:27:28.728Z,18.08
2023-05-11T22:29:57.558Z,15.13
2023-05-11T22:32:25.849Z,13.20
2023-05-11T22:34:58.755Z,15.55
2023-05-11T22:37:27.827Z,14.07
2023-05-11T22:39:56.689Z,12.07
2023-05-11T22:42:25.143Z,13.55
2023-05-11T22:44:53.917Z,16.52
2023-05-11T22:47:22.306Z,15.98
2023-05-11T22:49:51.376Z,16.42
2023-05-11T22:52:19.691Z,13.30
2023-05-11T22:54:53.137Z,15.55
2023-05-11T22:57:24.234Z,13.77
2023-05-11T22:59:53.180Z,11.60
2023-05-11T23:02:22.194Z,15.43
2023-05-11T23:04:55.039Z,16.17
2023-05-11T23:09:53.163Z,15.60
2023-05-11T23:12:21.910Z,18.55
2023-05-11T23:14:50.876Z,34.05
2023-05-11T23:17:19.497Z,56.05
2023-05-11T23:19:48.471Z,34.83
2023-05-11T23:25:02.971Z,20.42
2023-05-11T23:27:31.672Z,14.80
2023-05-11T23:30:04.227Z,16.13
2023-05-11T23:32:33.344Z,20.52
2023-05-11T23:35:02.018Z,21.88
2023-05-11T23:37:30.327Z,18.52
2023-05-11T23:39:59.240Z,19.80
2023-05-11T23:42:27.912Z,14.27
2023-05-11T23:44:56.936Z,20.75
2023-05-11T23:47:27.519Z,16.20
2023-05-11T23:49:56.250Z,17.97
2023-05-11T23:52:24.698Z,16.80
2023-05-11T23:54:53.479Z,18.55
2023-05-11T23:57:21.734Z,19.05
2023-05-11T23:59:50.636Z,17.23
